Terminal Aerodrome Forecast
Issued by NWS Shreveport, LA

Home | Current Version | Previous Version | Text Only | Print | Product List | Glossary On
Versions: 1 2 3 4 5 6 7 8 9 10 11 12 13 14 15 16
000
FTUS44 KSHV 191700
TAFMLU
TAF
KMLU 191730Z 1918/2018 04003KT P6SM SCT035
     FM200100 VRB03KT P6SM FEW050 BKN250
     FM201700 13005KT P6SM SCT035=

USA.gov is the U.S. government's official web portal to all federal, state and local government web resources and services.